Terminal Aerodrome Forecast
Issued by NWS Twin Cities, MN

Home | Current Version | Previous Version | Graphics & Text | Print | Product List | Glossary On
Versions: 1 2 3 4 5 6 7 8 9 10 11 12 13 14 15 16 17 18 19 20
000
FTUS43 KMPX 040639 AAA
TAFSTC
TAF AMD
KSTC 040639Z 0407/0506 VRB03KT 1/2SM FG SCT040
     FM041300 17004KT 3SM HZ SCT050 BKN250
     FM041800 18007KT 6SM HZ BKN250=

USA.gov is the U.S. government's official web portal to all federal, state and local government web resources and services.